Time;durP1;ratioP1;P1;durP2;ratioP2;P2;SDS_P1;SDS_P2;PMS_P1;PMS_P2;Temp;Humidity;BMP_temperature;BMP_pressure;BME280_temperature;BME280_humidity;BME280_pressure;Samples;Min_cycle;Max_cycle;Signal;HPM_P1;HPM_P2
2020/12/24 00:01:40;;;;;;;9.18;2.50;;;8.40;99.90;;;;;;5015704;28;20029;-61
2020/12/24 00:04:06;;;;;;;5.88;1.80;;;8.30;99.90;;;;;;5022036;28;20622;-60
2020/12/24 00:06:31;;;;;;;6.47;1.92;;;8.30;99.90;;;;;;5020457;28;20030;-60
2020/12/24 00:08:57;;;;;;;6.05;1.80;;;8.20;99.90;;;;;;5027152;28;20069;-62
2020/12/24 00:11:24;;;;;;;8.23;1.20;;;8.20;99.90;;;;;;5031983;28;20037;-61
2020/12/24 00:13:50;;;;;;;7.72;1.42;;;8.20;99.90;;;;;;5030105;28;20479;-61
2020/12/24 00:16:15;;;;;;;9.10;2.17;;;8.10;99.90;;;;;;5029248;28;20159;-61
2020/12/24 00:18:41;;;;;;;8.80;1.63;;;8.00;99.90;;;;;;5033603;28;20502;-61
2020/12/24 00:21:09;;;;;;;11.50;2.35;;;8.00;99.90;;;;;;5033411;28;20063;-60
2020/12/24 00:23:35;;;;;;;7.00;2.30;;;8.00;99.90;;;;;;5027972;28;20453;-61
2020/12/24 00:26:03;;;;;;;10.90;1.80;;;7.90;99.90;;;;;;5014081;28;20033;-61
2020/12/24 00:28:29;;;;;;;6.80;1.13;;;7.80;99.90;;;;;;5018217;28;20136;-61
2020/12/24 00:30:54;;;;;;;12.60;1.90;;;7.80;99.90;;;;;;5028173;28;20101;-62
2020/12/24 00:33:20;;;;;;;9.75;1.58;;;7.80;99.90;;;;;;5032374;28;20044;-61
2020/12/24 00:35:45;;;;;;;5.43;1.50;;;7.90;99.90;;;;;;5020728;28;20407;-60
2020/12/24 00:38:11;;;;;;;7.95;1.92;;;7.80;99.90;;;;;;5028589;28;20430;-60
2020/12/24 00:40:37;;;;;;;9.35;1.27;;;7.80;99.90;;;;;;5025923;28;20035;-62
2020/12/24 00:43:03;;;;;;;6.15;1.50;;;7.70;99.90;;;;;;5028793;28;20087;-62
2020/12/24 00:45:28;;;;;;;6.82;1.50;;;7.60;99.90;;;;;;5025685;28;20449;-61
2020/12/24 00:47:54;;;;;;;10.93;1.83;;;7.60;99.90;;;;;;5028369;28;20022;-62
2020/12/24 00:50:19;;;;;;;6.03;1.60;;;7.50;99.90;;;;;;5026141;28;20038;-61
2020/12/24 00:52:45;;;;;;;7.97;2.08;;;7.40;99.90;;;;;;5030146;28;20049;-61
2020/12/24 00:55:10;;;;;;;11.85;2.45;;;7.30;99.90;;;;;;5034994;28;20051;-61
2020/12/24 00:57:36;;;;;;;14.90;2.33;;;7.20;99.90;;;;;;5027227;28;20033;-60
2020/12/24 01:00:05;;;;;;;14.05;2.83;;;7.20;99.90;;;;;;5039115;28;20028;-60
2020/12/24 01:02:30;;;;;;;9.57;1.80;;;7.20;99.90;;;;;;5032550;28;20056;-61
2020/12/24 01:04:56;;;;;;;8.00;1.70;;;7.20;99.90;;;;;;5041466;28;20475;-61
2020/12/24 01:07:21;;;;;;;10.55;2.05;;;7.20;99.90;;;;;;5034018;28;20538;-61
2020/12/24 01:09:47;;;;;;;12.45;1.88;;;7.20;99.90;;;;;;5039250;28;20022;-61
2020/12/24 01:12:12;;;;;;;10.00;1.60;;;7.20;99.90;;;;;;5036684;28;20764;-62
2020/12/24 01:14:38;;;;;;;14.70;1.92;;;7.20;99.90;;;;;;5028063;28;20033;-59
2020/12/24 01:17:03;;;;;;;12.45;1.75;;;7.10;99.90;;;;;;5033639;28;20017;-58
2020/12/24 01:19:29;;;;;;;14.98;2.60;;;7.10;99.90;;;;;;5034469;28;20014;-61
2020/12/24 01:21:54;;;;;;;13.77;1.77;;;7.10;99.90;;;;;;5036622;28;20095;-60
2020/12/24 01:24:20;;;;;;;11.55;1.88;;;7.10;99.90;;;;;;5033804;28;20126;-61
2020/12/24 01:26:47;;;;;;;8.20;2.42;;;7.10;99.90;;;;;;5034697;28;20107;-59
2020/12/24 01:29:12;;;;;;;9.15;1.40;;;7.20;99.90;;;;;;5027070;28;20041;-60
2020/12/24 01:31:44;;;;;;;16.90;2.45;;;7.20;99.90;;;;;;5030156;28;20040;-61
2020/12/24 01:34:09;;;;;;;14.02;2.13;;;7.20;99.90;;;;;;5032984;28;20116;-61
2020/12/24 01:36:35;;;;;;;13.38;1.98;;;7.20;99.90;;;;;;5024566;28;20522;-62
2020/12/24 01:39:00;;;;;;;11.18;1.95;;;7.20;99.90;;;;;;5043345;28;20036;-61
2020/12/24 01:41:26;;;;;;;9.73;2.03;;;7.30;99.90;;;;;;5038854;28;20479;-61
2020/12/24 01:43:52;;;;;;;11.60;2.00;;;7.30;99.90;;;;;;5035034;28;20534;-62
2020/12/24 01:46:17;;;;;;;9.55;2.58;;;7.30;99.90;;;;;;5034735;28;20017;-62
2020/12/24 01:48:43;;;;;;;8.50;1.80;;;7.30;99.90;;;;;;5016073;28;20029;-61
2020/12/24 01:51:13;;;;;;;12.15;2.00;;;7.30;99.90;;;;;;5022634;28;20032;-61
2020/12/24 01:53:39;;;;;;;13.15;2.38;;;7.30;99.90;;;;;;5026619;28;20037;-62
2020/12/24 01:56:04;;;;;;;12.45;2.22;;;7.30;99.90;;;;;;5028778;28;20036;-58
2020/12/24 01:58:30;;;;;;;11.80;1.65;;;7.30;99.90;;;;;;5039199;28;20078;-60
2020/12/24 02:00:55;;;;;;;11.50;2.10;;;7.30;99.90;;;;;;5032410;28;20498;-62
2020/12/24 02:03:21;;;;;;;13.18;2.10;;;7.30;99.90;;;;;;5030385;28;20064;-61
2020/12/24 02:05:46;;;;;;;7.65;1.60;;;7.30;99.90;;;;;;5031525;28;20029;-63
2020/12/24 02:08:15;;;;;;;11.98;1.60;;;7.30;99.90;;;;;;5033438;28;20021;-62
2020/12/24 02:10:40;;;;;;;8.27;1.48;;;7.30;99.90;;;;;;5029813;28;20030;-61
2020/12/24 02:13:06;;;;;;;12.63;2.30;;;7.30;99.90;;;;;;5023581;28;20094;-61
2020/12/24 02:15:31;;;;;;;12.73;1.95;;;7.30;99.90;;;;;;5027623;28;20039;-61
2020/12/24 02:17:57;;;;;;;9.18;2.08;;;7.30;99.90;;;;;;5025615;28;20458;-61
2020/12/24 02:20:22;;;;;;;10.77;1.63;;;7.30;99.90;;;;;;5031622;28;20042;-61
2020/12/24 02:22:48;;;;;;;14.25;1.83;;;7.30;99.90;;;;;;5036274;28;20036;-61
2020/12/24 02:25:14;;;;;;;8.95;1.95;;;7.30;99.90;;;;;;5036193;28;20585;-62
2020/12/24 02:27:39;;;;;;;11.82;1.60;;;7.30;99.90;;;;;;5031882;28;20548;-62
2020/12/24 02:30:05;;;;;;;10.82;1.52;;;7.30;99.90;;;;;;5025894;28;20466;-61
2020/12/24 02:32:31;;;;;;;11.18;1.50;;;7.40;99.90;;;;;;5024857;28;20033;-61
2020/12/24 02:34:56;;;;;;;12.63;2.20;;;7.40;99.90;;;;;;5023545;28;20017;-61
2020/12/24 02:37:25;;;;;;;9.93;1.50;;;7.50;99.90;;;;;;5029628;28;20030;-62
2020/12/24 02:39:51;;;;;;;9.05;1.42;;;7.50;99.90;;;;;;5036246;28;20021;-62
2020/12/24 02:42:17;;;;;;;12.05;2.88;;;7.50;99.90;;;;;;5033482;28;20302;-61
2020/12/24 02:44:43;;;;;;;10.85;1.95;;;7.50;99.90;;;;;;5031798;28;20036;-62
2020/12/24 02:47:09;;;;;;;8.35;1.70;;;7.50;99.90;;;;;;5038078;28;20029;-62
2020/12/24 02:49:35;;;;;;;11.48;2.20;;;7.40;99.90;;;;;;5028150;28;20588;-62
2020/12/24 02:52:00;;;;;;;4.55;1.23;;;7.40;99.90;;;;;;5030846;28;20406;-62
2020/12/24 02:54:26;;;;;;;8.85;1.65;;;7.40;99.90;;;;;;5031518;28;20033;-60
2020/12/24 02:56:51;;;;;;;15.82;1.52;;;7.40;99.90;;;;;;5031067;28;20056;-61
2020/12/24 02:59:17;;;;;;;13.23;1.38;;;7.40;99.90;;;;;;5025513;28;20021;-62
2020/12/24 03:01:43;;;;;;;11.02;2.00;;;7.40;99.90;;;;;;5030852;28;20022;-61
2020/12/24 03:04:08;;;;;;;10.25;1.60;;;7.40;99.90;;;;;;5023176;28;20108;-60
2020/12/24 03:06:34;;;;;;;14.80;1.70;;;7.40;99.90;;;;;;5035603;28;20032;-61
2020/12/24 03:08:59;;;;;;;10.75;2.42;;;7.50;99.90;;;;;;5018060;28;21337;-61
2020/12/24 03:11:25;;;;;;;10.27;1.38;;;7.50;99.90;;;;;;5017644;28;20045;-62
2020/12/24 03:13:50;;;;;;;7.22;2.03;;;7.50;99.90;;;;;;5036019;28;20055;-61
2020/12/24 03:16:16;;;;;;;13.52;1.90;;;7.50;99.90;;;;;;5027657;28;20032;-60
2020/12/24 03:18:42;;;;;;;11.80;1.98;;;7.50;99.90;;;;;;5035976;28;20032;-61
2020/12/24 03:21:07;;;;;;;9.38;1.67;;;7.50;99.90;;;;;;5015803;28;20025;-61
2020/12/24 03:23:33;;;;;;;9.68;1.83;;;7.50;99.90;;;;;;5025135;28;20044;-60
2020/12/24 03:25:58;;;;;;;7.40;1.67;;;7.60;99.90;;;;;;5036427;28;20510;-60
2020/12/24 03:28:24;;;;;;;4.25;1.23;;;7.50;99.90;;;;;;5037284;28;20032;-61
2020/12/24 03:30:50;;;;;;;10.05;2.85;;;7.50;99.90;;;;;;5018108;28;20049;-61
2020/12/24 03:33:15;;;;;;;13.60;2.17;;;7.50;99.90;;;;;;5025892;28;20024;-61
2020/12/24 03:35:41;;;;;;;14.35;2.40;;;7.50;99.90;;;;;;5023693;28;20041;-60
2020/12/24 03:38:06;;;;;;;6.22;1.50;;;7.50;99.90;;;;;;5032715;28;20029;-60
2020/12/24 03:40:32;;;;;;;10.32;1.65;;;7.50;99.90;;;;;;5034279;28;20021;-61
2020/12/24 03:42:57;;;;;;;8.77;1.50;;;7.50;99.90;;;;;;5023959;28;20726;-61
2020/12/24 03:45:23;;;;;;;13.48;2.92;;;7.50;99.90;;;;;;5036614;28;20033;-60
2020/12/24 03:47:49;;;;;;;10.40;1.77;;;7.60;99.90;;;;;;5029902;28;20034;-59
2020/12/24 03:50:14;;;;;;;8.18;1.40;;;7.60;99.90;;;;;;5031673;28;20028;-59
2020/12/24 03:52:40;;;;;;;9.40;2.25;;;7.60;99.90;;;;;;5029267;28;20028;-59
2020/12/24 03:55:06;;;;;;;8.75;1.65;;;7.70;99.90;;;;;;5037232;28;20035;-61
2020/12/24 03:57:31;;;;;;;10.50;1.58;;;7.70;99.90;;;;;;5024483;28;20022;-61
2020/12/24 03:59:57;;;;;;;10.57;2.03;;;7.70;99.90;;;;;;5036866;28;20495;-61
2020/12/24 04:02:23;;;;;;;8.52;1.92;;;7.70;99.90;;;;;;5028305;28;20112;-61
2020/12/24 04:04:48;;;;;;;11.43;1.75;;;7.70;99.90;;;;;;5028955;28;20060;-61
2020/12/24 04:07:14;;;;;;;9.25;1.45;;;7.70;99.90;;;;;;5033957;28;20033;-60
2020/12/24 04:09:39;;;;;;;11.90;2.50;;;7.60;99.90;;;;;;5032265;28;20051;-62
2020/12/24 04:12:05;;;;;;;13.43;1.92;;;7.60;99.90;;;;;;5031911;28;20082;-60
2020/12/24 04:14:30;;;;;;;15.38;2.08;;;7.60;99.90;;;;;;5038252;28;20033;-62
2020/12/24 04:16:56;;;;;;;10.00;1.92;;;7.60;99.90;;;;;;5029927;28;20391;-61
2020/12/24 04:19:22;;;;;;;10.80;1.77;;;7.60;99.90;;;;;;5039402;28;20059;-61
2020/12/24 04:21:48;;;;;;;8.15;1.85;;;7.60;99.90;;;;;;5030114;28;20441;-61
2020/12/24 04:24:13;;;;;;;12.75;2.35;;;7.50;99.90;;;;;;5031349;28;20036;-61
2020/12/24 04:26:39;;;;;;;4.70;1.40;;;7.60;99.90;;;;;;5029770;28;20062;-61
2020/12/24 04:29:04;;;;;;;10.35;2.70;;;7.50;99.90;;;;;;5035644;28;20410;-62
2020/12/24 04:31:30;;;;;;;13.88;2.65;;;7.50;99.90;;;;;;5020678;28;20067;-62
2020/12/24 04:33:55;;;;;;;12.10;1.73;;;7.50;99.90;;;;;;5025967;28;20045;-60
2020/12/24 04:36:21;;;;;;;4.78;1.42;;;7.50;99.90;;;;;;5031773;28;20038;-61
2020/12/24 04:38:46;;;;;;;10.30;2.00;;;7.50;99.90;;;;;;5032696;28;20070;-61
2020/12/24 04:41:12;;;;;;;9.68;1.33;;;7.60;99.90;;;;;;5032785;28;20837;-62
2020/12/24 04:43:38;;;;;;;10.40;1.73;;;7.60;99.90;;;;;;5030692;28;20044;-61
2020/12/24 04:46:06;;;;;;;10.65;1.60;;;7.60;99.90;;;;;;5034220;28;20028;-62
2020/12/24 04:48:33;;;;;;;13.40;1.88;;;7.60;99.90;;;;;;5035890;28;20082;-61
2020/12/24 04:51:00;;;;;;;9.15;2.55;;;7.60;99.90;;;;;;5028992;28;20428;-62
2020/12/24 04:53:26;;;;;;;10.90;1.70;;;7.60;99.90;;;;;;5037618;28;20065;-62
2020/12/24 04:55:53;;;;;;;12.38;2.47;;;7.60;99.90;;;;;;5030776;28;20064;-61
2020/12/24 04:58:20;;;;;;;12.63;1.73;;;7.60;99.90;;;;;;5042940;28;20017;-62
2020/12/24 05:00:47;;;;;;;10.07;1.75;;;7.50;99.90;;;;;;5035385;28;20033;-60
2020/12/24 05:03:13;;;;;;;13.27;2.10;;;7.50;99.90;;;;;;5039798;28;20033;-61
2020/12/24 05:05:39;;;;;;;12.73;1.63;;;7.50;99.90;;;;;;5036863;28;20094;-60
2020/12/24 05:08:08;;;;;;;8.70;2.42;;;7.50;99.90;;;;;;5036271;28;20036;-59
2020/12/24 05:10:36;;;;;;;9.48;1.95;;;7.50;99.90;;;;;;5030528;28;20053;-62
2020/12/24 05:13:20;;;;;;;9.75;1.63;;;7.40;99.90;;;;;;5038743;28;20486;-61
2020/12/24 05:15:46;;;;;;;17.02;1.80;;;7.40;99.90;;;;;;5038228;28;20041;-61
2020/12/24 05:18:22;;;;;;;6.93;1.10;;;7.40;99.90;;;;;;5037718;28;20056;-61
2020/12/24 05:20:48;;;;;;;16.52;2.65;;;7.40;99.90;;;;;;5026529;28;20083;-60
2020/12/24 05:23:15;;;;;;;14.18;1.85;;;7.40;99.90;;;;;;5036150;28;20033;-60
2020/12/24 05:25:42;;;;;;;14.60;2.08;;;7.40;99.90;;;;;;5032970;28;20045;-61
2020/12/24 05:28:08;;;;;;;13.20;2.05;;;7.40;99.90;;;;;;5045103;28;20036;-61
2020/12/24 05:30:34;;;;;;;12.65;2.35;;;7.30;99.90;;;;;;5020655;28;20045;-61
2020/12/24 05:33:00;;;;;;;23.08;3.67;;;7.30;99.90;;;;;;5034009;28;20049;-62
2020/12/24 05:35:27;;;;;;;12.20;1.90;;;7.30;99.90;;;;;;5030920;28;20044;-62
2020/12/24 05:37:53;;;;;;;8.73;1.98;;;7.30;99.90;;;;;;5030206;28;20116;-60
2020/12/24 05:40:29;;;;;;;11.80;1.90;;;7.30;99.90;;;;;;5035623;28;20113;-61
2020/12/24 05:42:57;;;;;;;15.95;2.03;;;7.20;99.90;;;;;;5039484;28;20049;-61
2020/12/24 05:45:33;;;;;;;10.13;1.75;;;7.20;99.90;;;;;;5035856;28;20243;-62
2020/12/24 05:48:04;;;;;;;5.78;1.60;;;7.20;99.90;;;;;;5034251;28;20068;-60
2020/12/24 05:50:30;;;;;;;7.30;1.40;;;7.20;99.90;;;;;;5021201;28;20037;-61
2020/12/24 05:53:19;;;;;;;12.68;2.42;;;7.20;99.90;;;;;;5037290;28;20017;-61
2020/12/24 05:55:45;;;;;;;10.30;2.00;;;7.20;99.90;;;;;;5031489;28;20017;-61
2020/12/24 05:58:10;;;;;;;12.02;1.85;;;7.20;99.90;;;;;;5037578;28;20377;-61
2020/12/24 06:00:40;;;;;;;12.05;1.75;;;7.20;99.90;;;;;;5031797;28;20075;-61
2020/12/24 06:03:16;;;;;;;13.50;1.88;;;7.10;99.90;;;;;;5023735;28;20017;-61
2020/12/24 06:06:01;;;;;;;12.05;2.00;;;7.20;99.90;;;;;;5034042;28;20037;-62
2020/12/24 06:08:29;;;;;;;7.32;1.60;;;7.20;99.90;;;;;;5032294;28;20036;-59
2020/12/24 06:11:07;;;;;;;9.65;1.67;;;7.10;99.90;;;;;;5031889;28;20025;-61
2020/12/24 06:13:45;;;;;;;16.52;3.55;;;7.10;99.90;;;;;;5035970;28;20053;-61
2020/12/24 06:16:12;;;;;;;12.43;2.90;;;7.10;99.90;;;;;;5030409;28;20390;-61
2020/12/24 06:18:40;;;;;;;12.27;3.88;;;7.10;99.90;;;;;;5031018;28;20033;-61
2020/12/24 06:21:16;;;;;;;14.25;2.85;;;7.10;99.90;;;;;;5031965;28;20032;-61
2020/12/24 06:23:49;;;;;;;10.52;3.08;;;7.10;99.90;;;;;;5035447;28;20040;-62
2020/12/24 06:26:29;;;;;;;12.55;2.75;;;7.10;99.90;;;;;;5028618;28;20029;-61
2020/12/24 06:29:00;;;;;;;14.68;2.85;;;7.10;99.90;;;;;;5020855;28;20039;-61
2020/12/24 06:31:27;;;;;;;17.75;3.75;;;7.10;99.90;;;;;;5011144;28;20053;-61
2020/12/24 06:33:53;;;;;;;9.30;2.38;;;7.10;99.90;;;;;;5024327;28;20026;-62
2020/12/24 06:36:30;;;;;;;10.93;2.28;;;7.00;99.90;;;;;;5035450;28;20021;-60
2020/12/24 06:38:55;;;;;;;10.43;2.83;;;7.00;99.90;;;;;;5034818;28;20045;-62
2020/12/24 06:41:36;;;;;;;8.63;1.95;;;7.00;99.90;;;;;;5031227;28;20040;-60
2020/12/24 06:44:02;;;;;;;8.57;1.67;;;7.00;99.90;;;;;;5037631;28;20025;-61
2020/12/24 06:46:28;;;;;;;14.70;1.90;;;7.00;99.90;;;;;;5036235;28;20033;-61
2020/12/24 06:49:05;;;;;;;14.05;2.30;;;7.00;99.90;;;;;;5031569;28;20025;-62
2020/12/24 06:51:50;;;;;;;13.00;2.10;;;7.00;99.90;;;;;;5029971;28;20051;-62
2020/12/24 06:54:26;;;;;;;5.15;1.80;;;7.00;99.90;;;;;;5033050;28;20089;-62
2020/12/24 06:57:26;;;;;;;9.73;1.58;;;7.00;99.90;;;;;;5033344;28;20111;-62
2020/12/24 07:00:14;;;;;;;5.43;1.00;;;7.00;99.90;;;;;;5032099;28;20478;-61
2020/12/24 07:02:39;;;;;;;8.50;2.15;;;7.00;99.90;;;;;;5032824;28;20025;-62
2020/12/24 07:05:05;;;;;;;7.93;2.28;;;6.90;99.90;;;;;;5035248;28;20091;-61
2020/12/24 07:07:50;;;;;;;75.63;35.60;;;7.00;99.90;;;;;;5033369;28;20098;-62
2020/12/24 07:10:41;;;;;;;29.70;14.20;;;7.00;99.90;;;;;;5028716;28;20036;-62
2020/12/24 07:13:06;;;;;;;30.15;11.95;;;7.00;99.90;;;;;;5032279;28;20017;-61
2020/12/24 07:15:42;;;;;;;33.25;13.02;;;7.00;99.90;;;;;;5035833;28;20033;-60
2020/12/24 07:18:11;;;;;;;43.72;20.00;;;7.00;99.90;;;;;;5020161;28;20033;-60
2020/12/24 07:20:38;;;;;;;36.45;16.58;;;7.00;99.90;;;;;;5023254;28;20079;-61
2020/12/24 07:23:04;;;;;;;32.67;14.82;;;7.00;99.90;;;;;;5030811;28;20032;-60
2020/12/24 07:25:34;;;;;;;13.25;3.92;;;7.00;99.90;;;;;;5026121;28;20026;-61
2020/12/24 07:28:00;;;;;;;19.27;7.10;;;7.00;99.90;;;;;;5032880;28;20440;-57
2020/12/24 07:30:26;;;;;;;23.48;10.05;;;7.00;99.90;;;;;;5012576;28;20021;-61
2020/12/24 07:32:53;;;;;;;27.92;12.77;;;7.00;99.90;;;;;;5020032;28;20821;-62
2020/12/24 07:35:18;;;;;;;24.45;7.60;;;7.00;99.90;;;;;;5033569;28;20554;-61
2020/12/24 07:37:46;;;;;;;44.38;15.80;;;7.00;99.90;;;;;;5019982;28;20036;-62
2020/12/24 07:40:12;;;;;;;31.83;11.25;;;7.10;99.90;;;;;;5035673;28;20098;-61
2020/12/24 07:42:37;;;;;;;68.90;22.92;;;7.00;99.90;;;;;;5030750;28;20057;-61
2020/12/24 07:45:03;;;;;;;47.08;15.77;;;7.10;99.90;;;;;;5042688;28;20033;-61
2020/12/24 07:47:29;;;;;;;15.23;5.45;;;7.10;99.90;;;;;;5026418;28;20018;-60
2020/12/24 07:49:54;;;;;;;9.00;2.95;;;7.00;99.90;;;;;;5016453;28;20028;-62
2020/12/24 07:52:20;;;;;;;10.85;1.52;;;7.10;99.90;;;;;;5027045;28;20028;-62
2020/12/24 07:54:45;;;;;;;5.13;1.52;;;7.10;99.90;;;;;;5026807;28;20078;-60
2020/12/24 07:57:22;;;;;;;16.00;4.85;;;7.00;99.90;;;;;;5032885;28;20083;-61
2020/12/24 07:59:58;;;;;;;11.02;3.97;;;7.10;99.90;;;;;;5031239;28;20093;-61
2020/12/24 08:02:23;;;;;;;6.50;2.30;;;7.10;99.90;;;;;;5033494;28;20662;-61
2020/12/24 08:04:53;;;;;;;9.45;2.05;;;7.10;99.90;;;;;;5028213;28;20037;-61
2020/12/24 08:07:19;;;;;;;6.93;2.65;;;7.10;99.90;;;;;;5028338;28;20099;-61
2020/12/24 08:09:45;;;;;;;5.97;1.90;;;7.20;99.90;;;;;;5030093;28;20054;-62
2020/12/24 08:12:18;;;;;;;10.13;1.65;;;7.20;99.90;;;;;;5027119;28;20040;-61
2020/12/24 08:14:44;;;;;;;7.80;2.22;;;7.20;99.90;;;;;;5032742;28;20038;-62
2020/12/24 08:17:20;;;;;;;5.40;1.83;;;7.20;99.90;;;;;;5036976;28;20528;-61
2020/12/24 08:19:53;;;;;;;4.22;1.08;;;7.30;99.90;;;;;;5035943;28;20043;-61
2020/12/24 08:22:38;;;;;;;8.23;1.50;;;7.30;99.90;;;;;;5035023;28;20021;-62
2020/12/24 08:25:06;;;;;;;14.32;5.00;;;7.30;99.90;;;;;;5015224;28;20033;-60
2020/12/24 08:27:32;;;;;;;42.97;18.08;;;7.40;99.90;;;;;;5021236;28;20113;-61
2020/12/24 08:29:59;;;;;;;25.48;10.27;;;7.40;99.90;;;;;;5029723;28;20109;-61
2020/12/24 08:32:26;;;;;;;29.40;11.98;;;7.50;99.90;;;;;;5006975;28;20603;-61
2020/12/24 08:34:52;;;;;;;12.50;5.35;;;7.50;99.90;;;;;;5020186;28;20052;-59
2020/12/24 08:37:29;;;;;;;18.08;7.03;;;7.40;99.90;;;;;;5032450;28;20474;-61
2020/12/24 08:39:55;;;;;;;15.52;6.05;;;7.40;99.90;;;;;;5034369;28;20121;-61
2020/12/24 08:42:23;;;;;;;37.92;16.23;;;7.40;99.90;;;;;;5026231;28;20100;-62
2020/12/24 08:44:56;;;;;;;26.25;13.20;;;7.40;99.90;;;;;;5029973;28;20545;-61
2020/12/24 08:47:22;;;;;;;23.50;9.70;;;7.40;99.90;;;;;;5033931;28;20040;-61
2020/12/24 08:49:48;;;;;;;13.57;3.90;;;7.40;99.90;;;;;;5033188;28;20029;-61
2020/12/24 08:52:20;;;;;;;7.88;2.78;;;7.40;99.90;;;;;;5024139;28;20634;-62
2020/12/24 08:55:03;;;;;;;13.10;4.85;;;7.40;99.90;;;;;;5029904;28;20064;-62
2020/12/24 08:57:29;;;;;;;13.77;4.90;;;7.60;99.90;;;;;;5040420;28;20029;-62
2020/12/24 08:59:54;;;;;;;35.03;12.95;;;7.70;99.90;;;;;;5034312;28;20108;-61
2020/12/24 09:02:38;;;;;;;73.55;24.77;;;7.70;99.90;;;;;;5028869;28;20158;-61
2020/12/24 09:05:06;;;;;;;37.90;13.95;;;7.80;99.90;;;;;;5034707;28;20033;-61
2020/12/24 09:07:34;;;;;;;48.42;18.48;;;7.80;99.90;;;;;;5031848;28;20029;-60
2020/12/24 09:10:14;;;;;;;64.75;19.80;;;7.80;99.90;;;;;;5038285;28;20079;-58
2020/12/24 09:12:42;;;;;;;71.00;23.40;;;7.70;99.90;;;;;;5034669;28;20513;-61
2020/12/24 09:15:15;;;;;;;11.52;4.20;;;7.80;99.90;;;;;;5032967;28;20694;-61
2020/12/24 09:17:54;;;;;;;23.63;7.88;;;7.80;99.90;;;;;;5036890;28;20025;-61
2020/12/24 09:20:30;;;;;;;38.78;11.48;;;7.70;99.90;;;;;;5033638;28;20499;-60
2020/12/24 09:22:58;;;;;;;38.63;12.05;;;7.60;99.90;;;;;;5043480;28;20017;-61
2020/12/24 09:25:34;;;;;;;42.92;14.20;;;7.60;99.90;;;;;;5033758;28;20442;-61
2020/12/24 09:28:01;;;;;;;30.73;10.43;;;7.60;99.90;;;;;;5038045;28;20028;-61
2020/12/24 09:30:28;;;;;;;28.88;9.05;;;7.60;99.90;;;;;;5038184;28;20022;-61
2020/12/24 09:32:58;;;;;;;48.92;16.55;;;7.70;99.90;;;;;;5022141;28;20037;-61
2020/12/24 09:35:25;;;;;;;74.43;21.73;;;7.70;99.90;;;;;;5035853;28;20271;-61
2020/12/24 09:37:51;;;;;;;96.57;27.63;;;7.80;99.90;;;;;;5027046;28;20041;-61
2020/12/24 09:40:17;;;;;;;39.88;10.95;;;7.70;99.90;;;;;;5032369;28;20021;-61
2020/12/24 09:42:43;;;;;;;117.60;32.88;;;7.70;99.90;;;;;;5031502;28;20034;-61
2020/12/24 09:45:09;;;;;;;53.78;15.90;;;7.70;99.90;;;;;;5036772;28;20090;-63
2020/12/24 09:47:35;;;;;;;27.95;7.80;;;7.50;99.90;;;;;;5035858;28;20025;-62
2020/12/24 09:50:00;;;;;;;51.38;12.75;;;7.50;99.90;;;;;;5026109;28;20088;-61
2020/12/24 09:52:26;;;;;;;89.90;25.17;;;7.60;99.90;;;;;;5034233;28;20040;-62
2020/12/24 09:54:51;;;;;;;41.35;11.32;;;7.60;99.90;;;;;;5023548;28;20041;-62
2020/12/24 09:57:17;;;;;;;50.42;14.35;;;7.60;99.90;;;;;;5036205;28;20032;-62
2020/12/24 09:59:42;;;;;;;23.80;6.57;;;7.80;99.90;;;;;;5037328;28;20163;-62
2020/12/24 10:02:08;;;;;;;64.30;18.27;;;7.90;99.90;;;;;;5036296;28;20018;-61
2020/12/24 10:04:33;;;;;;;77.80;27.30;;;8.00;99.90;;;;;;5031386;28;20394;-62
2020/12/24 10:06:59;;;;;;;129.35;43.85;;;8.00;99.90;;;;;;5023900;28;20037;-62
2020/12/24 10:09:24;;;;;;;67.63;25.83;;;8.10;99.90;;;;;;5033014;28;20033;-62
2020/12/24 10:11:50;;;;;;;36.03;12.23;;;8.10;99.90;;;;;;5035458;28;20029;-62
2020/12/24 10:14:16;;;;;;;10.23;3.42;;;8.00;99.90;;;;;;5023653;28;20032;-61
2020/12/24 10:16:42;;;;;;;5.60;2.33;;;7.80;99.90;;;;;;4968897;28;20087;-61
2020/12/24 10:19:08;;;;;;;4.28;1.77;;;7.80;99.90;;;;;;5015502;28;20029;-61
2020/12/24 10:21:33;;;;;;;4.22;1.67;;;7.70;99.90;;;;;;4999818;28;20026;-62
2020/12/24 10:23:59;;;;;;;5.50;1.00;;;7.70;99.90;;;;;;4996914;28;20058;-59
2020/12/24 10:26:24;;;;;;;1.42;0.90;;;7.50;99.90;;;;;;4996257;28;20033;-59
2020/12/24 10:28:50;;;;;;;0.77;0.77;;;7.10;99.90;;;;;;4998683;28;20031;-60
2020/12/24 10:31:16;;;;;;;0.95;0.85;;;6.80;99.90;;;;;;4987953;28;20087;-60
2020/12/24 10:33:41;;;;;;;2.90;1.00;;;6.60;99.90;;;;;;4994285;28;20034;-61
2020/12/24 10:36:07;;;;;;;2.15;1.23;;;6.30;99.90;;;;;;4996615;28;20055;-60
2020/12/24 10:38:32;;;;;;;1.65;1.20;;;6.20;99.90;;;;;;4992097;28;20010;-60
2020/12/24 10:40:58;;;;;;;1.42;1.30;;;6.10;99.90;;;;;;4995137;28;20015;-61
2020/12/24 10:43:23;;;;;;;1.60;1.33;;;5.90;99.90;;;;;;4995617;28;20117;-61
2020/12/24 10:45:49;;;;;;;1.55;1.13;;;5.70;99.90;;;;;;4997174;28;20129;-61
2020/12/24 10:48:14;;;;;;;1.80;1.20;;;5.60;99.90;;;;;;4995617;28;20403;-61
2020/12/24 10:50:40;;;;;;;1.25;1.10;;;5.50;99.90;;;;;;4994285;28;20034;-60
2020/12/24 10:53:05;;;;;;;1.63;1.00;;;5.50;99.90;;;;;;4997230;28;20037;-60
2020/12/24 10:55:31;;;;;;;1.25;1.10;;;5.40;99.90;;;;;;4996933;28;20033;-61
2020/12/24 10:57:57;;;;;;;1.35;0.90;;;5.40;99.90;;;;;;5000479;28;20026;-59
2020/12/24 11:00:22;;;;;;;0.57;0.57;;;5.30;99.90;;;;;;4995009;28;20037;-61
2020/12/24 11:02:48;;;;;;;1.15;0.68;;;5.20;99.90;;;;;;4998094;28;20022;-61
2020/12/24 11:05:13;;;;;;;1.20;0.73;;;5.10;99.90;;;;;;5005306;28;20022;-60
2020/12/24 11:07:39;;;;;;;2.95;0.30;;;5.10;99.90;;;;;;4992312;28;20030;-60
2020/12/24 11:10:05;;;;;;;1.08;0.57;;;5.00;99.90;;;;;;4995863;28;20025;-60
2020/12/24 11:12:30;;;;;;;0.88;0.60;;;5.00;99.90;;;;;;5007799;28;20507;-61
2020/12/24 11:14:57;;;;;;;0.75;0.50;;;5.00;99.90;;;;;;5017289;28;20076;-61
2020/12/24 11:17:22;;;;;;;1.67;0.77;;;5.00;99.90;;;;;;5025817;28;20036;-61
2020/12/24 11:19:48;;;;;;;1.90;0.75;;;5.00;99.90;;;;;;5019593;28;20033;-61
2020/12/24 11:22:14;;;;;;;1.10;0.70;;;5.00;99.90;;;;;;5016235;28;20029;-61
2020/12/24 11:24:40;;;;;;;0.77;0.60;;;5.00;99.90;;;;;;5028017;28;20078;-60
2020/12/24 11:27:07;;;;;;;0.85;0.57;;;5.00;99.90;;;;;;5024320;28;20100;-61
2020/12/24 11:29:32;;;;;;;1.27;0.52;;;5.00;99.90;;;;;;5021361;28;20021;-61
2020/12/24 11:31:59;;;;;;;0.63;0.40;;;5.00;99.90;;;;;;5022450;28;20080;-61
2020/12/24 11:34:29;;;;;;;0.28;0.28;;;5.10;99.90;;;;;;5028617;28;20036;-61
2020/12/24 11:36:56;;;;;;;0.10;0.10;;;5.10;99.90;;;;;;5026569;28;20071;-61
2020/12/24 11:39:21;;;;;;;0.30;0.30;;;5.10;99.90;;;;;;5020994;28;20455;-61
2020/12/24 11:41:47;;;;;;;0.30;0.30;;;5.10;99.90;;;;;;5029388;28;20607;-61
2020/12/24 11:44:12;;;;;;;1.70;0.40;;;5.10;99.90;;;;;;5025346;28;20085;-61
2020/12/24 11:46:38;;;;;;;0.55;0.25;;;5.20;99.90;;;;;;5031707;28;20088;-61
2020/12/24 11:49:03;;;;;;;1.40;0.45;;;5.20;99.90;;;;;;5020340;28;20044;-62
2020/12/24 11:51:30;;;;;;;0.90;0.30;;;5.10;99.90;;;;;;5012434;28;20363;-61
2020/12/24 11:53:55;;;;;;;0.38;0.38;;;5.10;99.90;;;;;;4960358;28;20040;-61
2020/12/24 11:56:22;;;;;;;0.55;0.43;;;5.10;99.90;;;;;;5010779;28;20026;-60
2020/12/24 11:58:51;;;;;;;2.20;0.47;;;5.20;99.90;;;;;;5010853;28;20220;-61
2020/12/24 12:01:18;;;;;;;0.82;0.47;;;5.20;99.90;;;;;;5014692;28;20041;-61
2020/12/24 12:03:45;;;;;;;0.25;0.25;;;5.20;99.90;;;;;;5027979;28;20021;-61
2020/12/24 12:06:13;;;;;;;0.95;0.30;;;5.30;99.90;;;;;;5028457;28;20036;-61
2020/12/24 12:08:38;;;;;;;1.02;0.28;;;5.30;99.90;;;;;;5022060;28;20041;-60
2020/12/24 12:11:04;;;;;;;0.90;0.50;;;5.20;99.90;;;;;;5009331;28;20442;-60
2020/12/24 12:13:31;;;;;;;0.63;0.50;;;5.20;99.90;;;;;;5011843;28;20029;-60
2020/12/24 12:15:57;;;;;;;4.05;0.50;;;5.20;99.90;;;;;;5016916;28;20037;-60
2020/12/24 12:18:23;;;;;;;1.00;0.60;;;5.20;99.90;;;;;;5016317;28;20083;-60
2020/12/24 12:20:49;;;;;;;1.63;0.85;;;5.20;99.90;;;;;;5014584;28;20109;-61
2020/12/24 12:23:14;;;;;;;1.10;0.50;;;5.20;99.90;;;;;;5009612;28;20109;-60
2020/12/24 12:25:40;;;;;;;1.02;0.52;;;5.20;99.90;;;;;;5011225;28;20112;-61
2020/12/24 12:28:05;;;;;;;2.05;0.88;;;5.20;99.90;;;;;;5019373;28;20673;-61
2020/12/24 12:30:31;;;;;;;0.50;0.47;;;5.30;99.90;;;;;;5012489;28;20033;-61
2020/12/24 12:32:57;;;;;;;1.30;0.80;;;5.30;99.90;;;;;;4992266;28;20053;-60
2020/12/24 12:35:23;;;;;;;0.75;0.70;;;5.30;99.90;;;;;;5012184;28;20571;-61
2020/12/24 12:37:49;;;;;;;1.05;0.82;;;5.20;99.90;;;;;;5016060;28;20459;-61
2020/12/24 12:40:14;;;;;;;1.10;0.60;;;5.30;99.90;;;;;;5010076;28;20118;-61
2020/12/24 12:42:40;;;;;;;3.70;1.08;;;5.30;99.90;;;;;;5007761;28;21557;-60
2020/12/24 12:45:06;;;;;;;1.58;0.85;;;5.20;99.90;;;;;;5012904;28;20029;-61
2020/12/24 12:47:40;;;;;;;1.55;0.90;;;5.20;99.90;;;;;;5007697;28;20034;-62
2020/12/24 12:50:08;;;;;;;1.63;0.80;;;5.30;99.90;;;;;;5015906;28;20060;-61
2020/12/24 12:52:34;;;;;;;3.05;1.17;;;5.30;99.90;;;;;;5009892;28;20022;-59